createdAt,value
2022-08-07T00:00:22.967Z,15.26
2022-08-07T00:02:36.495Z,15.28
2022-08-07T00:04:45.377Z,15.27
2022-08-07T00:06:51.945Z,15.22
2022-08-07T00:08:56.031Z,15.22
2022-08-07T00:10:59.089Z,15.15
2022-08-07T00:13:17.494Z,15.11
2022-08-07T00:15:36.095Z,15.04
2022-08-07T00:17:42.243Z,15.05
2022-08-07T00:20:00.902Z,15.02
2022-08-07T00:22:06.782Z,14.96
2022-08-07T00:24:10.348Z,14.87
2022-08-07T00:26:31.214Z,14.78
2022-08-07T00:28:41.812Z,14.70
2022-08-07T00:30:50.464Z,14.67
2022-08-07T00:32:53.485Z,14.70
2022-08-07T00:34:56.676Z,14.64
2022-08-07T00:36:59.761Z,14.59
2022-08-07T00:39:02.778Z,14.62
2022-08-07T00:41:14.692Z,14.65
2022-08-07T00:43:59.538Z,14.64
2022-08-07T00:45:42.352Z,14.61
2022-08-07T00:48:08.693Z,14.53
2022-08-07T00:50:20.316Z,14.58
2022-08-07T00:52:36.608Z,14.51
2022-08-07T00:54:40.653Z,14.54
2022-08-07T00:56:44.682Z,14.55
2022-08-07T00:58:52.679Z,14.53
2022-08-07T01:00:55.632Z,14.47
2022-08-07T01:03:00.473Z,14.46
2022-08-07T01:05:19.064Z,14.42
2022-08-07T01:07:23.750Z,14.14
2022-08-07T01:10:04.969Z,14.08
2022-08-07T01:12:23.798Z,14.17
2022-08-07T01:14:17.892Z,14.22
2022-08-07T01:16:30.360Z,14.23
2022-08-07T01:18:35.631Z,13.97
2022-08-07T01:20:43.579Z,14.12
2022-08-07T01:23:12.339Z,14.11
2022-08-07T01:25:39.974Z,14.04
2022-08-07T01:27:41.143Z,14.04
2022-08-07T01:29:55.435Z,14.09
2022-08-07T01:31:59.492Z,13.83
2022-08-07T01:34:04.085Z,13.88
2022-08-07T01:36:16.800Z,13.91
2022-08-07T01:38:24.812Z,13.86
2022-08-07T01:40:34.162Z,13.87
2022-08-07T01:42:57.374Z,13.90
2022-08-07T01:45:01.087Z,13.88
2022-08-07T01:48:16.990Z,13.88
2022-08-07T01:49:28.542Z,13.86
2022-08-07T01:52:02.656Z,13.82
2022-08-07T01:54:11.679Z,13.77
2022-08-07T01:56:28.905Z,13.73
2022-08-07T01:58:37.462Z,13.65
2022-08-07T02:00:49.271Z,13.59
2022-08-07T02:03:18.580Z,13.59
2022-08-07T02:05:43.029Z,13.55
2022-08-07T02:07:51.613Z,13.55
2022-08-07T02:10:14.314Z,13.55
2022-08-07T02:12:18.634Z,13.51
2022-08-07T02:14:36.599Z,13.48
2022-08-07T02:16:50.154Z,13.43
2022-08-07T02:18:57.439Z,13.41
2022-08-07T02:21:06.399Z,13.36
2022-08-07T02:23:13.880Z,13.31
2022-08-07T02:26:10.388Z,13.26
2022-08-07T02:27:54.482Z,13.19
2022-08-07T02:29:59.538Z,13.28
2022-08-07T02:32:10.923Z,13.00
2022-08-07T02:34:17.961Z,13.19
2022-08-07T02:36:32.584Z,13.15
2022-08-07T02:38:51.003Z,13.23
2022-08-07T02:41:04.279Z,13.14
2022-08-07T02:43:16.780Z,13.18
2022-08-07T02:45:58.102Z,13.21
2022-08-07T02:47:49.181Z,13.19
2022-08-07T02:49:58.543Z,13.17
2022-08-07T02:52:12.900Z,13.08
2022-08-07T02:54:19.221Z,13.05
2022-08-07T02:56:24.357Z,13.03
2022-08-07T02:58:33.250Z,12.99
2022-08-07T03:00:39.911Z,12.88
2022-08-07T03:02:54.319Z,12.83
2022-08-07T03:04:59.224Z,12.82
2022-08-07T03:07:05.258Z,12.80
2022-08-07T03:09:43.870Z,12.84
2022-08-07T03:11:51.889Z,12.90
2022-08-07T03:14:04.310Z,12.88
2022-08-07T03:16:14.988Z,12.81
2022-08-07T03:18:20.214Z,12.90
2022-08-07T03:20:27.607Z,12.86
2022-08-07T03:22:31.721Z,12.82
2022-08-07T03:24:36.723Z,12.85
2022-08-07T03:26:58.349Z,12.74
2022-08-07T03:29:10.399Z,12.71
2022-08-07T03:31:24.878Z,12.82
2022-08-07T03:33:44.818Z,12.81
2022-08-07T03:35:52.907Z,12.76
2022-08-07T03:38:01.913Z,12.79
2022-08-07T03:40:15.753Z,12.76
2022-08-07T03:42:21.957Z,12.70
2022-08-07T03:44:34.331Z,12.69
2022-08-07T03:47:13.064Z,12.65
2022-08-07T03:49:04.512Z,12.62
2022-08-07T03:51:14.570Z,12.61
2022-08-07T03:53:18.025Z,12.60
2022-08-07T03:55:23.109Z,12.57
2022-08-07T03:58:34.295Z,12.57
2022-08-07T04:00:02.984Z,12.57
2022-08-07T04:02:18.752Z,12.54
2022-08-07T04:04:22.739Z,12.52
2022-08-07T04:06:37.238Z,12.48
2022-08-07T04:08:42.534Z,12.51
2022-08-07T04:10:54.320Z,12.45
2022-08-07T04:13:15.728Z,12.48
2022-08-07T04:15:23.951Z,12.44
2022-08-07T04:18:11.304Z,12.52
2022-08-07T04:19:54.266Z,12.50
2022-08-07T04:22:07.843Z,12.47
2022-08-07T04:24:30.592Z,12.54
2022-08-07T04:26:43.625Z,12.55
2022-08-07T04:28:48.385Z,12.60
2022-08-07T04:30:57.032Z,12.50
2022-08-07T04:33:07.974Z,12.61
2022-08-07T04:35:14.326Z,12.63
2022-08-07T04:37:20.431Z,12.67
2022-08-07T04:39:26.204Z,12.71
2022-08-07T04:41:30.634Z,12.75
2022-08-07T04:44:09.791Z,12.81
2022-08-07T04:46:29.641Z,12.86
2022-08-07T04:48:46.365Z,12.85
2022-08-07T04:51:00.231Z,12.83
2022-08-07T04:53:09.169Z,12.86
2022-08-07T04:58:13.808Z,12.84
2022-08-07T04:58:14.419Z,12.86
2022-08-07T05:00:30.321Z,12.79
2022-08-07T05:02:45.818Z,13.00
2022-08-07T05:04:57.255Z,13.09
2022-08-07T05:07:19.796Z,13.30
2022-08-07T05:09:45.923Z,13.51
2022-08-07T05:11:56.964Z,13.66
2022-08-07T05:14:52.439Z,13.78
2022-08-07T05:16:33.317Z,14.20
2022-08-07T05:18:42.185Z,14.50
2022-08-07T05:20:50.261Z,14.51
2022-08-07T05:22:56.194Z,14.98
2022-08-07T05:25:00.730Z,15.31
2022-08-07T05:27:06.952Z,15.48
2022-08-07T05:29:22.701Z,15.78
2022-08-07T05:31:35.213Z,15.99
2022-08-07T05:34:01.202Z,16.24
2022-08-07T05:36:22.325Z,16.58
2022-08-07T05:39:01.236Z,17.00
2022-08-07T05:40:51.860Z,17.09
2022-08-07T05:42:57.447Z,17.27
2022-08-07T05:45:14.062Z,17.49
2022-08-07T05:47:20.840Z,17.63
2022-08-07T05:49:43.176Z,17.94
2022-08-07T05:51:47.702Z,18.22
2022-08-07T05:54:12.272Z,18.66
2022-08-07T05:56:20.609Z,18.75
2022-08-07T05:58:37.084Z,19.02
2022-08-07T06:00:46.243Z,19.07
2022-08-07T06:02:55.005Z,19.44
2022-08-07T06:05:03.919Z,19.48
2022-08-07T06:07:08.291Z,19.31
2022-08-07T06:09:16.262Z,19.86
2022-08-07T06:11:22.298Z,19.77
2022-08-07T06:14:10.653Z,19.66
2022-08-07T06:15:50.708Z,19.32
2022-08-07T06:18:01.042Z,19.70
2022-08-07T06:20:12.633Z,19.88
2022-08-07T06:22:32.457Z,20.08
2022-08-07T06:24:58.466Z,20.36
2022-08-07T06:27:05.691Z,20.74
2022-08-07T06:29:10.531Z,20.92
2022-08-07T06:31:14.601Z,21.14
2022-08-07T06:33:19.062Z,21.60
2022-08-07T06:35:39.109Z,21.69
2022-08-07T06:37:49.743Z,21.93
2022-08-07T06:40:16.130Z,22.08
2022-08-07T06:42:32.811Z,22.30
2022-08-07T06:44:58.982Z,21.55
2022-08-07T06:47:10.242Z,21.97
2022-08-07T06:49:16.174Z,21.16
2022-08-07T06:51:24.534Z,21.46
2022-08-07T06:55:28.999Z,21.28
2022-08-07T06:56:02.050Z,22.32
2022-08-07T06:58:13.793Z,21.65
2022-08-07T07:00:32.643Z,22.53
2022-08-07T07:02:48.992Z,22.40
2022-08-07T07:04:58.072Z,23.13
2022-08-07T07:07:18.771Z,23.11
2022-08-07T07:09:30.862Z,23.98
2022-08-07T07:12:08.781Z,24.18
2022-08-07T07:14:01.398Z,23.28
2022-08-07T07:16:14.801Z,23.69
2022-08-07T07:18:46.838Z,24.70
2022-08-07T07:20:54.501Z,24.84
2022-08-07T07:24:10.987Z,24.26
2022-08-07T07:26:32.841Z,24.56
2022-08-07T07:27:55.707Z,26.21
2022-08-07T07:30:09.611Z,26.34
2022-08-07T07:32:15.530Z,26.65
2022-08-07T07:34:22.300Z,27.10
2022-08-07T07:36:34.885Z,27.38
2022-08-07T07:38:46.162Z,25.96
2022-08-07T07:40:51.002Z,26.62
2022-08-07T07:42:55.842Z,26.97
2022-08-07T07:45:01.345Z,28.06
2022-08-07T07:47:15.930Z,28.26
2022-08-07T07:50:33.336Z,27.95
2022-08-07T07:51:58.165Z,27.60
2022-08-07T07:54:04.394Z,28.21
2022-08-07T07:56:16.717Z,28.59
2022-08-07T07:58:40.238Z,28.81
2022-08-07T08:00:45.762Z,28.77
2022-08-07T08:03:01.194Z,28.76
2022-08-07T08:05:11.387Z,28.90
2022-08-07T08:07:30.024Z,29.21
2022-08-07T08:09:52.094Z,29.52
2022-08-07T08:12:05.173Z,29.01
2022-08-07T08:14:09.382Z,28.80
2022-08-07T08:16:20.333Z,28.19
2022-08-07T08:18:29.254Z,28.76
2022-08-07T08:20:34.503Z,29.03
2022-08-07T08:23:00.428Z,29.49
2022-08-07T08:25:41.956Z,29.99
2022-08-07T08:27:56.806Z,29.03
2022-08-07T08:30:05.474Z,28.73
2022-08-07T08:32:18.868Z,29.27
2022-08-07T08:34:29.484Z,29.80
2022-08-07T08:36:34.625Z,29.59
2022-08-07T08:38:41.168Z,29.97
2022-08-07T08:40:51.218Z,30.14
2022-08-07T08:42:58.589Z,30.41
2022-08-07T08:45:13.089Z,29.99
2022-08-07T08:47:25.213Z,30.40
2022-08-07T08:49:46.295Z,30.77
2022-08-07T08:52:14.009Z,28.85
2022-08-07T08:54:26.584Z,28.23
2022-08-07T08:56:35.010Z,28.50
2022-08-07T08:58:50.620Z,28.84
2022-08-07T09:01:01.864Z,28.77
2022-08-07T09:03:47.975Z,29.70
2022-08-07T09:05:55.135Z,29.58
2022-08-07T09:08:17.892Z,30.20
2022-08-07T09:10:32.685Z,30.14
2022-08-07T09:12:53.117Z,30.25
2022-08-07T09:16:22.439Z,30.51
2022-08-07T09:17:59.473Z,30.77
2022-08-07T09:20:03.222Z,29.99
2022-08-07T09:24:31.903Z,29.76
2022-08-07T09:25:17.301Z,29.33
2022-08-07T09:27:28.786Z,29.23
2022-08-07T09:30:03.991Z,29.06
2022-08-07T09:32:20.909Z,29.09
2022-08-07T09:34:27.612Z,28.62
2022-08-07T09:36:37.199Z,28.96
2022-08-07T09:38:50.256Z,29.28
2022-08-07T09:44:05.693Z,29.32
2022-08-07T09:47:23.713Z,29.56
2022-08-07T09:50:00.760Z,29.79
2022-08-07T09:52:10.856Z,29.55
2022-08-07T09:54:08.226Z,29.46
2022-08-07T09:56:37.319Z,29.52
2022-08-07T09:59:00.718Z,29.17
2022-08-07T10:01:53.799Z,29.55
2022-08-07T10:04:14.421Z,29.73
2022-08-07T10:06:30.506Z,27.66
2022-08-07T10:09:08.617Z,28.54
2022-08-07T10:12:02.433Z,29.03
2022-08-07T10:13:58.350Z,28.80
2022-08-07T10:16:23.493Z,28.97
2022-08-07T10:18:40.759Z,29.42
2022-08-07T10:20:59.124Z,29.33
2022-08-07T10:24:06.409Z,29.29
2022-08-07T10:26:05.013Z,29.45
2022-08-07T10:28:17.802Z,29.72
2022-08-07T10:30:24.943Z,28.91
2022-08-07T10:32:53.337Z,29.22
2022-08-07T10:35:09.112Z,29.50
2022-08-07T10:38:00.263Z,29.35
2022-08-07T10:40:05.792Z,29.54
2022-08-07T10:42:31.308Z,29.30
2022-08-07T10:44:47.132Z,29.28
2022-08-07T10:46:55.891Z,29.08
2022-08-07T10:49:03.837Z,29.31
2022-08-07T10:51:39.727Z,29.29
2022-08-07T10:53:48.648Z,28.70
2022-08-07T10:56:02.231Z,29.12
2022-08-07T10:58:14.525Z,29.05
2022-08-07T11:00:39.114Z,28.97
2022-08-07T11:02:49.007Z,28.67
2022-08-07T11:05:10.172Z,28.12
2022-08-07T11:07:56.582Z,28.63
2022-08-07T11:10:09.537Z,28.77
2022-08-07T11:12:19.043Z,28.65
2022-08-07T11:14:45.906Z,28.82
2022-08-07T11:17:07.201Z,28.84
2022-08-07T11:19:21.692Z,29.01
2022-08-07T11:21:42.966Z,28.64
2022-08-07T11:23:50.035Z,28.93
2022-08-07T11:26:05.994Z,28.95
2022-08-07T11:28:15.551Z,28.99
2022-08-07T11:30:29.094Z,28.93
2022-08-07T11:32:47.949Z,29.06
2022-08-07T11:34:58.460Z,29.17
2022-08-07T11:37:03.911Z,29.27
2022-08-07T11:39:19.551Z,29.10
2022-08-07T11:42:02.092Z,29.02
2022-08-07T11:44:12.457Z,29.39
2022-08-07T11:46:30.442Z,29.18
2022-08-07T11:49:27.617Z,29.32
2022-08-07T11:51:41.955Z,29.37
2022-08-07T11:54:01.639Z,29.37
2022-08-07T11:56:28.112Z,29.27
2022-08-07T11:58:42.868Z,29.36
2022-08-07T12:01:07.391Z,29.32
2022-08-07T12:03:47.051Z,29.29
2022-08-07T12:06:37.801Z,29.08
2022-08-07T12:08:35.055Z,29.34
2022-08-07T12:10:41.631Z,29.30
2022-08-07T12:12:56.524Z,29.42
2022-08-07T12:15:05.257Z,29.21
2022-08-07T12:17:19.721Z,29.04
2022-08-07T12:19:35.967Z,29.28
2022-08-07T12:22:37.179Z,28.30
2022-08-07T12:24:38.080Z,28.57
2022-08-07T12:26:49.300Z,28.82
2022-08-07T12:28:58.531Z,29.01
2022-08-07T12:33:31.064Z,29.27
2022-08-07T12:35:58.117Z,29.24
2022-08-07T12:38:11.558Z,29.47
2022-08-07T12:40:46.300Z,29.43
2022-08-07T12:42:54.931Z,29.59
2022-08-07T12:45:05.716Z,29.28
2022-08-07T12:47:21.353Z,28.91
2022-08-07T12:49:44.802Z,28.65
2022-08-07T12:52:13.995Z,28.82
2022-08-07T12:54:38.436Z,29.20
2022-08-07T12:56:50.903Z,29.24
2022-08-07T12:58:57.238Z,28.98
2022-08-07T13:01:07.854Z,29.04
2022-08-07T13:04:02.105Z,29.60
2022-08-07T13:06:31.251Z,29.56
2022-08-07T13:08:52.525Z,29.85
2022-08-07T13:11:20.899Z,28.53
2022-08-07T13:13:47.994Z,28.95
2022-08-07T13:16:00.550Z,29.14
2022-08-07T13:18:26.235Z,29.58
2022-08-07T13:20:36.879Z,29.81
2022-08-07T13:22:52.533Z,30.43
2022-08-07T13:25:00.537Z,30.57
2022-08-07T13:27:12.942Z,30.43
2022-08-07T13:29:20.471Z,30.50
2022-08-07T13:31:32.043Z,30.45
2022-08-07T13:34:32.621Z,30.43
2022-08-07T13:36:26.776Z,30.42
2022-08-07T13:38:36.676Z,30.24
2022-08-07T13:41:04.353Z,30.26
2022-08-07T13:43:12.339Z,30.73
2022-08-07T13:46:11.756Z,30.18
2022-08-07T13:48:08.566Z,30.71
2022-08-07T13:50:35.133Z,30.73
2022-08-07T13:52:40.770Z,30.48
2022-08-07T13:54:49.113Z,30.14
2022-08-07T13:57:01.772Z,30.05
2022-08-07T13:59:20.383Z,29.62
2022-08-07T14:01:26.366Z,30.09
2022-08-07T14:04:06.946Z,30.18
2022-08-07T14:06:02.069Z,29.84
2022-08-07T14:08:08.951Z,30.01
2022-08-07T14:10:23.117Z,30.10
2022-08-07T14:12:36.221Z,30.05
2022-08-07T14:14:48.142Z,30.01
2022-08-07T14:16:54.529Z,30.01
2022-08-07T14:18:58.614Z,30.06
2022-08-07T14:21:07.986Z,30.16
2022-08-07T14:23:59.232Z,30.21
2022-08-07T14:26:00.930Z,30.25
2022-08-07T14:28:10.716Z,29.86
2022-08-07T14:30:27.700Z,29.67
2022-08-07T14:32:42.926Z,29.35
2022-08-07T14:34:47.068Z,29.09
2022-08-07T14:36:55.845Z,29.06
2022-08-07T14:39:03.304Z,29.16
2022-08-07T14:41:15.279Z,29.55
2022-08-07T14:43:57.320Z,29.26
2022-08-07T14:45:49.463Z,29.09
2022-08-07T14:47:58.855Z,29.06
2022-08-07T14:50:06.602Z,28.72
2022-08-07T14:52:16.896Z,28.77
2022-08-07T14:56:44.904Z,29.13
2022-08-07T14:58:55.027Z,29.38
2022-08-07T15:00:59.662Z,29.17
2022-08-07T15:03:25.052Z,28.80
2022-08-07T15:05:54.885Z,28.73
2022-08-07T15:08:12.563Z,28.85
2022-08-07T15:10:25.012Z,28.77
2022-08-07T15:12:34.574Z,28.66
2022-08-07T15:17:20.563Z,28.36
2022-08-07T15:20:31.082Z,27.91
2022-08-07T15:22:04.126Z,28.10
2022-08-07T15:26:41.016Z,28.24
2022-08-07T15:31:58.028Z,28.40
2022-08-07T15:33:43.101Z,28.19
2022-08-07T15:36:01.928Z,28.29
2022-08-07T15:40:34.874Z,28.08
2022-08-07T15:42:51.748Z,28.04
2022-08-07T15:44:55.245Z,28.20
2022-08-07T15:54:01.868Z,27.96
2022-08-07T15:56:17.450Z,27.67
2022-08-07T15:58:24.853Z,27.44
2022-08-07T16:00:39.701Z,27.22
2022-08-07T16:02:46.799Z,26.86
2022-08-07T16:04:50.776Z,26.81
2022-08-07T16:06:55.604Z,26.55
2022-08-07T16:09:04.041Z,26.52
2022-08-07T16:11:40.195Z,26.48
2022-08-07T16:14:03.228Z,26.52
2022-08-07T16:16:48.875Z,26.48
2022-08-07T16:18:51.586Z,26.52
2022-08-07T16:22:03.226Z,26.47
2022-08-07T16:23:54.787Z,26.41
2022-08-07T16:26:03.210Z,26.35
2022-08-07T16:30:05.973Z,26.35
2022-08-07T16:30:57.832Z,26.25
2022-08-07T16:34:02.643Z,26.29
2022-08-07T16:35:56.506Z,26.34
2022-08-07T16:38:09.694Z,26.26
2022-08-07T16:40:56.842Z,26.25
2022-08-07T16:43:12.445Z,26.27
2022-08-07T16:46:34.586Z,26.25
2022-08-07T16:50:27.507Z,26.17
2022-08-07T16:52:50.555Z,26.17
2022-08-07T16:54:34.705Z,26.15
2022-08-07T16:56:53.557Z,26.13
2022-08-07T16:59:14.782Z,26.15
2022-08-07T17:01:35.037Z,26.06
2022-08-07T17:03:59.744Z,26.12
2022-08-07T17:06:41.118Z,26.11
2022-08-07T17:09:10.552Z,26.04
2022-08-07T17:11:28.219Z,26.08
2022-08-07T17:14:18.554Z,25.93
2022-08-07T17:16:28.515Z,25.90
2022-08-07T17:18:37.829Z,25.88
2022-08-07T17:20:42.381Z,25.84
2022-08-07T17:23:01.392Z,25.83
2022-08-07T17:25:16.145Z,25.80
2022-08-07T17:27:32.656Z,25.76
2022-08-07T17:30:15.475Z,25.76
2022-08-07T17:32:30.002Z,25.76
2022-08-07T17:34:38.804Z,25.69
2022-08-07T17:37:09.648Z,25.68
2022-08-07T17:39:57.639Z,25.63
2022-08-07T17:42:06.540Z,25.64
2022-08-07T17:44:33.230Z,25.59
2022-08-07T17:46:41.696Z,25.58
2022-08-07T17:48:52.800Z,25.59
2022-08-07T17:51:01.761Z,25.56
2022-08-07T17:53:59.682Z,25.53
2022-08-07T17:55:55.046Z,25.45
2022-08-07T17:58:05.224Z,25.48
2022-08-07T18:00:11.859Z,25.45
2022-08-07T18:02:16.446Z,25.46
2022-08-07T18:04:30.825Z,25.44
2022-08-07T18:06:43.241Z,25.37
2022-08-07T18:09:02.030Z,25.33
2022-08-07T18:12:08.054Z,25.33
2022-08-07T18:13:48.407Z,25.26
2022-08-07T18:16:04.702Z,25.19
2022-08-07T18:18:46.012Z,25.22
2022-08-07T18:21:02.845Z,25.15
2022-08-07T18:23:05.951Z,25.07
2022-08-07T18:25:40.822Z,25.02
2022-08-07T18:28:00.668Z,24.96
2022-08-07T18:30:31.238Z,24.91
2022-08-07T18:33:12.125Z,24.92
2022-08-07T18:35:22.976Z,24.87
2022-08-07T18:38:56.529Z,24.88
2022-08-07T18:40:17.947Z,24.73
2022-08-07T18:42:37.322Z,24.76
2022-08-07T18:47:21.006Z,24.65
2022-08-07T18:50:32.822Z,24.63
2022-08-07T18:52:37.519Z,24.61
2022-08-07T18:54:34.852Z,24.56
2022-08-07T18:57:23.406Z,24.38
2022-08-07T18:59:47.276Z,24.45
2022-08-07T19:02:19.029Z,24.36
2022-08-07T19:04:37.202Z,24.29
2022-08-07T19:06:51.396Z,24.26
2022-08-07T19:09:09.035Z,24.21
2022-08-07T19:11:36.711Z,24.02
2022-08-07T19:14:02.429Z,24.03
2022-08-07T19:19:57.920Z,23.81
2022-08-07T19:22:05.503Z,23.79
2022-08-07T19:24:30.462Z,23.66
2022-08-07T19:27:08.959Z,23.63
2022-08-07T19:30:57.665Z,23.58
2022-08-07T19:32:10.955Z,23.13
2022-08-07T19:34:05.518Z,23.23
2022-08-07T19:36:15.714Z,23.19
2022-08-07T19:38:33.787Z,23.14
2022-08-07T19:40:50.450Z,23.13
2022-08-07T19:42:55.790Z,23.05
2022-08-07T19:45:09.321Z,23.05
2022-08-07T19:47:16.182Z,22.99
2022-08-07T19:49:57.620Z,22.95
2022-08-07T19:51:52.498Z,22.89
2022-08-07T19:54:34.268Z,22.84
2022-08-07T19:57:52.241Z,22.76
2022-08-07T19:58:53.212Z,22.71
2022-08-07T20:00:58.657Z,22.63
2022-08-07T20:03:34.751Z,22.57
2022-08-07T20:05:59.536Z,22.48
2022-08-07T20:07:59.847Z,22.44
2022-08-07T20:10:36.938Z,22.35
2022-08-07T20:12:35.037Z,22.28
2022-08-07T20:14:53.518Z,22.20
2022-08-07T20:16:58.431Z,22.09
2022-08-07T20:19:02.417Z,21.97
2022-08-07T20:21:14.354Z,21.84
2022-08-07T20:23:41.042Z,21.68
2022-08-07T20:25:51.112Z,21.58
2022-08-07T20:27:58.690Z,21.45
2022-08-07T20:30:10.952Z,21.37
2022-08-07T20:32:25.243Z,21.30
2022-08-07T20:34:49.416Z,21.21
2022-08-07T20:36:53.621Z,21.15
2022-08-07T20:39:30.371Z,21.09
2022-08-07T20:41:34.041Z,21.03
2022-08-07T20:43:47.926Z,20.97
2022-08-07T20:46:27.149Z,20.91
2022-08-07T20:48:29.061Z,20.83
2022-08-07T20:50:34.672Z,20.80
2022-08-07T20:52:51.196Z,20.74
2022-08-07T20:54:57.692Z,20.65
2022-08-07T20:57:08.238Z,20.60
2022-08-07T21:00:04.839Z,20.53
2022-08-07T21:01:55.456Z,20.48
2022-08-07T21:04:22.960Z,20.42
2022-08-07T21:06:28.457Z,20.36
2022-08-07T21:08:39.267Z,20.32
2022-08-07T21:10:46.242Z,20.24
2022-08-07T21:12:49.811Z,20.21
2022-08-07T21:14:53.926Z,20.16
2022-08-07T21:18:00.741Z,20.14
2022-08-07T21:19:32.386Z,20.11
2022-08-07T21:21:57.578Z,20.07
2022-08-07T21:24:04.549Z,20.01
2022-08-07T21:26:20.543Z,19.94
2022-08-07T21:28:48.705Z,19.92
2022-08-07T21:31:01.002Z,19.88
2022-08-07T21:33:11.577Z,19.82
2022-08-07T21:35:34.915Z,19.72
2022-08-07T21:37:58.383Z,19.64
2022-08-07T21:40:07.797Z,19.57
2022-08-07T21:42:41.789Z,19.53
2022-08-07T21:44:51.018Z,19.48
2022-08-07T21:46:59.479Z,19.42
2022-08-07T21:49:14.669Z,19.36
2022-08-07T21:51:32.391Z,19.35
2022-08-07T21:53:46.583Z,19.33
2022-08-07T21:56:01.721Z,19.34
2022-08-07T21:58:29.946Z,19.28
2022-08-07T22:00:41.042Z,19.24
2022-08-07T22:02:46.337Z,19.22
2022-08-07T22:04:54.039Z,19.05
2022-08-07T22:07:02.487Z,18.94
2022-08-07T22:09:07.466Z,18.96
2022-08-07T22:11:17.579Z,19.05
2022-08-07T22:13:52.326Z,19.06
2022-08-07T22:16:39.029Z,18.92
2022-08-07T22:18:24.929Z,18.68
2022-08-07T22:20:37.848Z,18.84
2022-08-07T22:22:46.424Z,18.91
2022-08-07T22:25:03.642Z,18.89
2022-08-07T22:27:17.238Z,18.76
2022-08-07T22:29:38.107Z,18.80
2022-08-07T22:32:03.395Z,18.76
2022-08-07T22:34:14.724Z,18.65
2022-08-07T22:36:29.583Z,18.59
2022-08-07T22:38:38.822Z,18.57
2022-08-07T22:40:49.596Z,18.56
2022-08-07T22:42:56.978Z,18.48
2022-08-07T22:45:10.971Z,18.54
2022-08-07T22:47:56.313Z,18.56
2022-08-07T22:50:20.786Z,18.38
2022-08-07T22:52:48.177Z,18.32
2022-08-07T22:55:17.135Z,18.25
2022-08-07T22:57:46.616Z,18.32
2022-08-07T22:59:58.547Z,18.29
2022-08-07T23:02:27.902Z,18.33
2022-08-07T23:06:06.920Z,18.29
2022-08-07T23:07:41.967Z,18.20
2022-08-07T23:10:38.374Z,18.09
2022-08-07T23:12:43.523Z,18.05
2022-08-07T23:15:21.871Z,18.02
2022-08-07T23:17:54.594Z,17.72
2022-08-07T23:20:40.577Z,17.84
2022-08-07T23:22:56.173Z,17.89
2022-08-07T23:25:10.249Z,17.73
2022-08-07T23:28:22.594Z,17.72
2022-08-07T23:30:39.682Z,17.68
2022-08-07T23:34:36.006Z,17.67
2022-08-07T23:35:40.408Z,17.65
2022-08-07T23:38:00.866Z,17.61
2022-08-07T23:40:14.199Z,17.40
2022-08-07T23:42:41.418Z,17.42
2022-08-07T23:45:15.436Z,17.46
2022-08-07T23:53:00.972Z,17.44
2022-08-07T23:53:55.356Z,17.48
2022-08-07T23:56:41.651Z,17.44
